Good Samaritan Village, Nebraska
Current Conditions -  °F | °C
As of 10:53 AM on Sunday 23 Nov 2014 (Local Time) from KHSI Reporting Station
Light Rain Light Rain  
Wind Chill: 28°   Ceiling: 1500
Heat Index: 39°   Visibility: 9mi
Dew Point: 35°   Wind: 23mph
Humidity: 86%   Direction: 350°N
Pressure: 29.61"   Gusts: 32mph
Location:  40.5551°N, 98.369°W
Report Text: KHSI 231653Z AUTO 35020G28KT 9SM -RA BKN015 OVC025 04/02 A2961 RMK AO2 PK WND 36035/1630 SLP030 P0005 T00390017
Loading
Personal Weather Stations






























Interactive Weather Map New forecast layout! Learn more

10-Day Weather Forecast

Advertisements
Track Severe Weather on mobile